Mount Vernon, Washington
Current Conditions -  °F | °C
As of 3:56 AM on Friday 24 Oct 2014 (Local Time) from KNUW Reporting Station
Broken Clouds Broken Clouds  
Wind Chill: 53°   Ceiling: 9500
Heat Index: 53°   Visibility: 10mi
Dew Point: 45°   Wind: 13mph
Humidity: 74%   Direction: 120°ESE
Pressure: 30.02"   Gusts: NA
Location:  48.42°N, 122.33°W
Report Text: KNUW 241056Z 12011KT 10SM FEW020 SCT045 BKN095 BKN140 12/07 A3002 RMK AO2 SLP169 T01170072 $
Loading
Personal Weather Stations






























Interactive Weather Map
Tropical Storm Tracking
New forecast layout! Learn more

10-Day Weather Forecast

Advertisements
Track Severe Weather on mobile